Time;durP1;ratioP1;P1;durP2;ratioP2;P2;SDS_P1;SDS_P2;PMS_P1;PMS_P2;Temp;Humidity;BMP_temperature;BMP_pressure;BME280_temperature;BME280_humidity;BME280_pressure;Samples;Min_cycle;Max_cycle;Signal;HPM_P1;HPM_P2
2023/10/10 00:04:08;;;;;;;77.50;58.40;;;;;;;-0.57;95.95;99906.69;437205;1255;138993;-63
2023/10/10 00:14:19;;;;;;;86.10;63.80;;;;;;;-0.69;96.04;99896.54;436391;1251;139589;-64
2023/10/10 00:24:30;;;;;;;78.60;60.90;;;;;;;-0.79;96.10;99881.86;436217;1251;139410;-64
2023/10/10 00:34:38;;;;;;;80.50;59.20;;;;;;;-0.89;96.18;99886.11;435913;1251;139349;-65
2023/10/10 00:44:44;;;;;;;82.80;61.60;;;;;;;-0.96;96.42;99890.15;436545;1251;138930;-64
2023/10/10 00:54:50;;;;;;;75.80;59.40;;;;;;;-1.00;96.63;99880.05;436036;1251;139155;-63
2023/10/10 01:04:57;;;;;;;80.50;61.00;;;;;;;-1.03;96.55;99868.56;436417;1251;139031;-63
2023/10/10 01:15:08;;;;;;;71.70;59.30;;;;;;;-1.05;96.91;99868.75;436234;1251;139175;-63
2023/10/10 01:25:41;;;;;;;69.20;54.30;;;;;;;-0.97;97.12;99872.80;436288;1255;138999;-64
2023/10/10 01:35:49;;;;;;;82.80;60.50;;;;;;;-0.78;97.62;99875.48;435953;1255;139230;-63
2023/10/10 01:46:09;;;;;;;82.70;61.60;;;;;;;-0.56;98.00;99880.35;436267;1256;140499;-64
2023/10/10 01:56:16;;;;;;;91.10;66.30;;;;;;;-0.32;98.48;99881.58;436462;1251;139794;-64
2023/10/10 02:06:24;;;;;;;;;;;;;;;-0.10;98.79;99877.47;437232;1251;141194;-63
2023/10/10 02:16:35;;;;;;;84.70;49.30;;;;;;;0.05;99.17;99881.02;436504;1255;126636;-64
2023/10/10 02:26:42;;;;;;;85.70;63.10;;;;;;;0.18;99.53;99886.49;436707;1254;139270;-63
2023/10/10 02:37:05;;;;;;;76.00;55.60;;;;;;;0.30;99.75;99885.60;436141;1251;138814;-63
2023/10/10 02:47:12;;;;;;;70.50;49.80;;;;;;;0.35;99.90;99891.38;436225;1256;139647;-63
2023/10/10 02:57:31;;;;;;;75.00;46.60;;;;;;;0.43;99.97;99892.44;436335;1251;138636;-63
2023/10/10 03:07:41;;;;;;;55.70;31.20;;;;;;;0.52;100.00;99897.64;435965;1256;139946;-63
2023/10/10 03:17:52;;;;;;;29.30;20.30;;;;;;;0.51;100.00;99899.02;436057;1255;139076;-62
2023/10/10 03:28:05;;;;;;;37.40;20.50;;;;;;;0.48;100.00;99906.33;436063;1251;139582;-63
2023/10/10 03:38:28;;;;;;;27.20;16.20;;;;;;;0.42;100.00;99904.52;436344;1251;139115;-64
2023/10/10 05:33:00;;;;;;;24.40;17.60;;;;;;;0.51;100.00;99947.44;434195;1260;139734;-63
2023/10/10 05:43:09;;;;;;;18.00;13.60;;;;;;;0.70;100.00;99960.22;434669;1258;139189;-63
2023/10/10 05:53:16;;;;;;;22.90;15.30;;;;;;;0.90;100.00;99973.64;434380;1259;139628;-68
2023/10/10 06:03:23;;;;;;;21.70;13.10;;;;;;;1.14;100.00;99974.41;435169;1256;140076;-71
2023/10/10 06:13:29;;;;;;;15.20;12.10;;;;;;;1.32;100.00;99982.00;435978;1251;139702;-69
2023/10/10 06:23:35;;;;;;;17.80;13.40;;;;;;;1.74;100.00;99983.21;436048;1252;139603;-66
2023/10/10 06:33:41;;;;;;;24.10;15.20;;;;;;;2.19;100.00;99983.09;436379;1252;138925;-62
2023/10/10 06:43:48;;;;;;;17.90;13.60;;;;;;;2.83;100.00;99980.89;436129;1255;138907;-68
2023/10/10 06:53:56;;;;;;;16.10;12.40;;;;;;;3.51;100.00;99992.02;437870;1251;140049;-71
2023/10/10 07:04:10;;;;;;;18.70;13.50;;;;;;;4.22;100.00;99997.38;436524;1252;140763;-68
2023/10/10 07:14:16;;;;;;;18.30;14.90;;;;;;;4.50;99.82;99989.77;436547;1253;139566;-64
2023/10/10 07:24:28;;;;;;;17.20;13.30;;;;;;;4.90;99.46;99982.86;436468;1255;138966;-67
2023/10/10 07:34:38;;;;;;;17.60;12.00;;;;;;;5.64;98.96;99986.54;436761;1254;144179;-65
2023/10/10 07:44:44;;;;;;;12.10;10.80;;;;;;;6.24;98.09;99991.77;436645;1255;139025;-63
2023/10/10 07:55:03;;;;;;;12.50;9.60;;;;;;;7.14;97.48;99989.11;436441;1254;139270;-62
2023/10/10 08:05:12;;;;;;;12.20;10.00;;;;;;;8.67;97.00;99985.92;436594;1251;139230;-61
2023/10/10 08:15:24;;;;;;;11.30;9.30;;;;;;;9.99;94.81;99992.36;436432;1254;138949;-68
2023/10/10 08:25:32;;;;;;;11.30;8.70;;;;;;;11.07;91.82;99976.65;436746;1252;138675;-62
2023/10/10 08:35:38;;;;;;;11.70;8.40;;;;;;;12.07;88.97;99971.11;436558;1254;139644;-66
2023/10/10 08:45:54;;;;;;;7.60;6.90;;;;;;;12.66;87.19;99964.83;436840;1252;139044;-63
2023/10/10 08:56:02;;;;;;;9.90;8.10;;;;;;;12.71;83.88;99968.86;436220;1255;138640;-61
2023/10/10 09:06:20;;;;;;;8.70;7.80;;;;;;;12.61;82.40;99973.59;436322;1255;138840;-60
2023/10/10 09:16:42;;;;;;;10.40;8.30;;;;;;;12.26;81.27;99976.38;436477;1251;138066;-59
2023/10/10 09:26:50;;;;;;;9.40;8.30;;;;;;;11.77;80.69;99982.39;436927;1255;138165;-62
2023/10/10 09:36:59;;;;;;;9.00;8.10;;;;;;;11.58;80.66;99981.16;436991;1256;138722;-63
2023/10/10 09:47:37;;;;;;;;;;;;;;;11.31;80.49;99976.28;437208;1255;138483;-72
2023/10/10 09:57:58;;;;;;;9.90;8.90;;;;;;;10.94;80.27;99966.19;437124;1251;125979;-71
2023/10/10 10:08:13;;;;;;;8.50;7.60;;;;;;;10.61;79.94;99962.70;438490;1254;138842;-72
2023/10/10 10:18:44;;;;;;;5.70;5.20;;;;;;;10.10;79.79;99957.36;436109;1254;138646;-64
2023/10/10 10:28:56;;;;;;;5.90;5.30;;;;;;;9.82;79.43;99951.02;436338;1254;138762;-65
2023/10/10 10:39:21;;;;;;;7.00;6.40;;;;;;;9.66;79.95;99951.02;436440;1256;140145;-72
2023/10/10 10:49:29;;;;;;;4.60;4.00;;;;;;;9.60;79.88;99945.38;439099;1253;139218;-74
2023/10/10 10:59:55;;;;;;;4.60;4.20;;;;;;;9.63;79.36;99941.19;438897;1254;138878;-73
2023/10/10 11:10:11;;;;;;;6.50;5.10;;;;;;;9.69;79.46;99934.74;437491;1255;138712;-71
2023/10/10 11:20:54;;;;;;;6.50;5.90;;;;;;;9.97;79.98;99930.93;438631;1253;138530;-73
2023/10/10 11:30:58;;;;;;;6.70;6.10;;;;;;;10.29;79.70;99922.48;438675;1254;138521;-70
2023/10/10 11:41:08;;;;;;;9.40;8.10;;;;;;;10.42;79.35;99920.38;436945;1255;139300;-60
2023/10/10 11:51:14;;;;;;;10.10;9.10;;;;;;;10.33;79.22;99908.98;436199;1256;138680;-71
2023/10/10 12:01:47;;;;;;;8.20;7.00;;;;;;;10.43;79.88;99909.30;438705;1252;139524;-70
2023/10/10 12:11:46;;;;;;;6.40;5.50;;;;;;;10.76;79.62;99896.69;438010;1254;139088;-59
2023/10/10 12:21:53;;;;;;;6.40;5.80;;;;;;;11.01;78.99;99885.06;436575;1253;139253;-60
2023/10/10 12:32:09;;;;;;;7.80;6.60;;;;;;;11.20;78.51;99870.92;436673;1251;140574;-60
2023/10/10 12:42:15;;;;;;;8.30;6.60;;;;;;;11.49;78.28;99871.45;437614;1255;140851;-60
2023/10/10 12:52:20;;;;;;;9.70;7.60;;;;;;;11.81;78.25;99878.52;436453;1256;139287;-59
2023/10/10 13:02:27;;;;;;;7.90;7.10;;;;;;;12.02;77.26;99874.90;436137;1254;138775;-60
2023/10/10 13:12:35;;;;;;;9.50;7.80;;;;;;;12.03;76.97;99870.65;436056;1255;140257;-60
2023/10/10 13:22:41;;;;;;;12.00;8.30;;;;;;;12.04;76.76;99864.54;436107;1256;141781;-69
2023/10/10 13:32:47;;;;;;;12.60;9.70;;;;;;;12.05;76.72;99859.10;436090;1256;139058;-72
2023/10/10 13:42:53;;;;;;;11.50;9.90;;;;;;;12.10;76.77;99869.33;436596;1256;139027;-65
2023/10/10 13:53:00;;;;;;;12.10;9.50;;;;;;;12.12;76.86;99867.94;437528;1254;138878;-61
2023/10/10 14:03:06;;;;;;;11.70;10.00;;;;;;;12.13;76.89;99861.03;436384;1253;140860;-67
2023/10/10 14:13:19;;;;;;;15.00;10.80;;;;;;;12.13;77.10;99845.06;436079;1255;139662;-63
2023/10/10 14:23:26;;;;;;;14.50;10.30;;;;;;;12.07;77.12;99844.05;436442;1254;139216;-63
2023/10/10 14:33:32;;;;;;;13.00;11.00;;;;;;;11.88;77.25;99842.61;436834;1251;140699;-62
2023/10/10 14:43:38;;;;;;;13.70;11.00;;;;;;;11.51;77.52;99838.66;436372;1256;139573;-62
2023/10/10 14:53:51;;;;;;;13.60;10.10;;;;;;;11.17;78.23;99850.06;436008;1255;140432;-63
2023/10/10 15:03:57;;;;;;;12.40;10.70;;;;;;;10.95;78.83;99852.65;436167;1256;140844;-63
2023/10/10 15:14:06;;;;;;;17.00;12.50;;;;;;;10.78;79.65;99854.04;436353;1251;140381;-68
2023/10/10 15:24:12;;;;;;;14.40;11.70;;;;;;;10.67;80.40;99855.20;436132;1256;140094;-67
2023/10/10 15:34:18;;;;;;;16.10;12.00;;;;;;;10.56;81.03;99850.29;436279;1252;140622;-67
2023/10/10 15:44:27;;;;;;;21.50;15.70;;;;;;;10.40;81.62;99853.98;436522;1251;141342;-68
2023/10/10 15:54:34;;;;;;;45.00;30.60;;;;;;;10.26;82.35;99863.70;436358;1256;140847;-68
2023/10/10 16:04:44;;;;;;;29.50;22.80;;;;;;;10.11;82.95;99853.22;436242;1256;140314;-68
2023/10/10 16:14:49;;;;;;;22.60;16.10;;;;;;;9.94;83.71;99858.89;435858;1256;140100;-69
2023/10/10 16:24:56;;;;;;;22.80;17.60;;;;;;;9.81;84.43;99862.73;435870;1251;139036;-67
2023/10/10 16:35:04;;;;;;;27.20;20.40;;;;;;;9.68;85.06;99867.85;436056;1256;141250;-67
2023/10/10 16:45:11;;;;;;;26.40;18.50;;;;;;;9.59;85.75;99882.51;436323;1255;139339;-67
2023/10/10 16:55:17;;;;;;;23.50;18.80;;;;;;;9.61;86.40;99884.87;435998;1255;138947;-67
2023/10/10 17:05:24;;;;;;;30.20;21.20;;;;;;;9.62;86.83;99884.96;436316;1252;139414;-68
2023/10/10 17:15:35;;;;;;;30.40;21.20;;;;;;;9.65;87.32;99872.89;436588;1251;140073;-68
2023/10/10 17:25:42;;;;;;;29.80;20.70;;;;;;;9.68;88.02;99875.38;436259;1255;138797;-69
2023/10/10 17:35:47;;;;;;;29.70;21.70;;;;;;;9.70;88.50;99866.91;436071;1251;139251;-67
2023/10/10 17:45:55;;;;;;;30.50;22.30;;;;;;;9.68;89.09;99854.36;436207;1255;138947;-68
2023/10/10 17:56:03;;;;;;;28.70;21.50;;;;;;;9.67;89.74;99861.42;435995;1251;138958;-68
2023/10/10 18:06:20;;;;;;;28.40;20.50;;;;;;;9.67;90.24;99866.16;435879;1254;140157;-68
2023/10/10 18:16:26;;;;;;;26.10;19.60;;;;;;;9.64;90.60;99839.25;436228;1255;139426;-68
2023/10/10 18:26:37;;;;;;;28.80;20.80;;;;;;;9.51;90.98;99846.20;436160;1256;138971;-68
2023/10/10 18:36:43;;;;;;;25.70;19.50;;;;;;;9.46;91.50;99839.00;436053;1255;139088;-67
2023/10/10 18:46:49;;;;;;;27.80;19.60;;;;;;;9.46;92.15;99849.84;436174;1251;140427;-66
2023/10/10 18:56:57;;;;;;;25.90;19.50;;;;;;;9.47;92.47;99834.79;436154;1255;138797;-66
2023/10/10 19:07:03;;;;;;;32.50;21.10;;;;;;;9.45;92.69;99832.96;437193;1251;140401;-66
2023/10/10 19:17:09;;;;;;;29.50;21.60;;;;;;;9.38;93.01;99834.36;436214;1257;139079;-64
2023/10/10 19:27:16;;;;;;;32.40;20.40;;;;;;;9.28;93.45;99834.23;436405;1251;181118;-66
2023/10/10 19:37:22;;;;;;;31.30;21.30;;;;;;;9.18;93.76;99826.89;437134;1255;139437;-68
2023/10/10 19:47:32;;;;;;;34.10;21.70;;;;;;;9.13;94.45;99829.60;436754;1256;139222;-66
2023/10/10 19:57:42;;;;;;;44.40;30.90;;;;;;;9.13;94.78;99817.16;436896;1255;139040;-65
2023/10/10 20:07:49;;;;;;;36.10;22.50;;;;;;;9.09;95.11;99816.54;436351;1255;138853;-66
2023/10/10 20:17:57;;;;;;;38.10;25.30;;;;;;;9.04;95.30;99803.02;436397;1255;140098;-65
2023/10/10 20:28:04;;;;;;;41.70;27.80;;;;;;;8.92;95.82;99811.34;438584;1253;141259;-64
2023/10/10 20:38:10;;;;;;;43.80;28.30;;;;;;;8.89;96.26;99803.50;436470;1251;139108;-65
2023/10/10 20:48:21;;;;;;;36.30;24.70;;;;;;;8.76;96.52;99790.52;436348;1251;138914;-66
2023/10/10 20:58:28;;;;;;;45.20;27.20;;;;;;;8.57;97.02;99794.14;436053;1253;140933;-64
2023/10/10 21:08:34;;;;;;;42.20;26.40;;;;;;;8.61;97.92;99789.77;436207;1251;139105;-66
2023/10/10 21:18:41;;;;;;;45.30;30.30;;;;;;;8.67;98.35;99774.26;436261;1251;139480;-66
2023/10/10 21:28:48;;;;;;;42.90;28.00;;;;;;;8.67;98.85;99762.22;436047;1253;140189;-66
2023/10/10 21:38:54;;;;;;;55.50;32.70;;;;;;;8.66;99.32;99759.66;435985;1251;139175;-66
2023/10/10 21:48:59;;;;;;;47.40;28.80;;;;;;;8.64;99.80;99749.47;436015;1251;138941;-66
2023/10/10 21:59:06;;;;;;;40.00;25.20;;;;;;;8.64;100.00;99756.42;436440;1253;139906;-65
2023/10/10 22:09:12;;;;;;;39.90;27.30;;;;;;;8.74;100.00;99748.43;436680;1251;139232;-67
2023/10/10 22:19:19;;;;;;;38.90;25.80;;;;;;;8.82;100.00;99740.97;436242;1255;139514;-65
2023/10/10 22:29:25;;;;;;;40.00;24.50;;;;;;;8.89;100.00;99739.38;436393;1253;141240;-65
2023/10/10 22:39:30;;;;;;;44.50;26.10;;;;;;;8.98;100.00;99738.04;436211;1251;139229;-65
2023/10/10 22:49:36;;;;;;;45.80;26.30;;;;;;;9.08;100.00;99732.97;436010;1251;139327;-65
2023/10/10 22:59:42;;;;;;;48.60;27.30;;;;;;;9.17;100.00;99725.65;436094;1255;139589;-65
2023/10/10 23:09:48;;;;;;;38.10;24.20;;;;;;;9.20;100.00;99723.36;436247;1251;139096;-65
2023/10/10 23:19:54;;;;;;;38.00;23.60;;;;;;;9.19;100.00;99729.52;436140;1253;140799;-66
2023/10/10 23:30:00;;;;;;;34.90;22.40;;;;;;;9.23;100.00;99715.67;436160;1255;139872;-66
2023/10/10 23:40:15;;;;;;;35.50;21.50;;;;;;;9.28;100.00;99704.96;435952;1253;142124;-66
2023/10/10 23:50:22;;;;;;;34.90;23.40;;;;;;;9.30;100.00;99695.58;436303;1251;139201;-65
